Salinas, Ecuador

10:10 AM ECT on February 11, 2016 (GMT -0500)
Gen Ulpiano Paez | | Change Station
CLOSE
Current Station
Airport
Location: Salinas,
Elevation: 26 ft
Nearby Weather Stations

Elev 26 ft 2.21 °S, 80.99 °W | Updated 10 minutes ago

Mostly Cloudy
Mostly Cloudy
82 °F
Feels Like 90 °F
N
8
Wind Variable Wind from SW

Today
High -- | Low -- °F
--% Chance of Precip.
Yesterday
High -- | Low -- °F
Precip. -- in
Pressure 29.89 in
Visibility 6.2 miles
Clouds Few 1200 ft
Mostly Cloudy 9000 ft
Heat Index 90 °F
Dew Point 75 °F
Humidity 79%
Rainfall 0.00 in
Snow Depth Not available.
6:32 AM 6:43 PM
Waxing Crescent, 12% visible
METAR SESA 111500Z 22007KT 9999 FEW012 BKN090 28/24 Q1012
Pressure 29.89 in
Visibility 6.2 miles
Clouds Few 1200 ft
Mostly Cloudy 9000 ft
Heat Index 90 °F
Dew Point 75 °F
Humidity 79%
Rainfall 0.00 in
Snow Depth Not available.
6:32 AM 6:43 PM
Waxing Crescent, 12% visible
METAR SESA 111500Z 22007KT 9999 FEW012 BKN090 28/24 Q1012

10-Day Weather Forecast

No radar image for this location.
×

Almanac

Astronomy

Feb. 11, 2016 Rise Set
Actual Time
Civil Twilight
Nautical Twilight
Astronomical Twilight
Moon
Length of Visible Light
Length of Day
Tomorrow will be .
, % of the Moon is Illuminated

Today's Extremes

Country Highs Country Lows

Community

WunderPhotos

Upload Photos

1,892,059 photos uploaded!

WunderBlog® & News

Nearby

Air Quality

  Air Quality AQ Index Pollutant
Not available.

Snow Depth

Station Depth Elevation

Earthquake Activity

City Distance Mag. Time & Date
Minimum magnitude displayed is 2.5.

Coastal Water Temperatures

Place Temperature

Stations

Nearby Weather Stations

Station Location Temp. Windchill Dew Point Humidity Wind Precip. Elev Updated Type